createdAt,value
2022-08-21T00:02:23.983Z,18.53
2022-08-21T00:04:56.959Z,18.50
2022-08-21T00:07:25.310Z,18.41
2022-08-21T00:09:52.901Z,18.46
2022-08-21T00:12:20.334Z,18.40
2022-08-21T00:14:47.143Z,18.38
2022-08-21T00:17:14.180Z,18.36
2022-08-21T00:19:40.890Z,18.41
2022-08-21T00:22:07.591Z,18.36
2022-08-21T00:24:34.731Z,18.29
2022-08-21T00:27:01.407Z,18.27
2022-08-21T00:29:28.182Z,18.28
2022-08-21T00:31:55.089Z,18.27
2022-08-21T00:34:21.798Z,18.23
2022-08-21T00:36:48.578Z,18.20
2022-08-21T00:39:15.490Z,18.15
2022-08-21T00:41:43.437Z,18.12
2022-08-21T00:44:14.324Z,18.12
2022-08-21T00:46:43.105Z,18.10
2022-08-21T00:49:12.522Z,18.01
2022-08-21T00:51:46.178Z,18.04
2022-08-21T00:54:18.673Z,18.03
2022-08-21T00:56:49.044Z,17.93
2022-08-21T00:59:18.775Z,17.96
2022-08-21T01:01:46.070Z,17.93
2022-08-21T01:04:13.202Z,17.93
2022-08-21T01:06:40.398Z,17.86
2022-08-21T01:09:07.125Z,17.91
2022-08-21T01:11:33.846Z,17.89
2022-08-21T01:14:00.938Z,17.87
2022-08-21T01:16:28.085Z,17.82
2022-08-21T01:18:54.743Z,17.81
2022-08-21T01:21:27.939Z,17.84
2022-08-21T01:23:57.060Z,17.84
2022-08-21T01:26:34.092Z,17.86
2022-08-21T01:29:10.999Z,17.86
2022-08-21T01:31:38.816Z,17.85
2022-08-21T01:34:06.402Z,17.84
2022-08-21T01:36:33.486Z,17.85
2022-08-21T01:39:00.783Z,17.78
2022-08-21T01:41:27.468Z,17.82
2022-08-21T01:43:54.113Z,17.84
2022-08-21T01:46:21.398Z,17.88
2022-08-21T01:48:48.180Z,17.87
2022-08-21T01:51:14.900Z,17.90
2022-08-21T01:53:42.157Z,17.88
2022-08-21T01:56:12.704Z,17.88
2022-08-21T01:58:45.711Z,17.84
2022-08-21T02:01:13.078Z,17.86
2022-08-21T02:03:40.430Z,17.86
2022-08-21T02:06:08.211Z,17.87
2022-08-21T02:08:35.599Z,17.88
2022-08-21T02:11:02.625Z,17.89
2022-08-21T02:13:29.602Z,17.89
2022-08-21T02:15:56.259Z,17.92
2022-08-21T02:18:23.324Z,17.93
2022-08-21T02:20:54.103Z,17.93
2022-08-21T02:23:26.689Z,17.95
2022-08-21T02:26:02.334Z,17.96
2022-08-21T02:28:29.508Z,17.96
2022-08-21T02:30:57.025Z,18.00
2022-08-21T02:33:24.848Z,18.01
2022-08-21T02:35:52.969Z,17.98
2022-08-21T02:38:34.209Z,18.03
2022-08-21T02:41:02.010Z,18.04
2022-08-21T02:43:29.426Z,18.04
2022-08-21T02:45:58.088Z,18.04
2022-08-21T02:48:30.637Z,18.05
2022-08-21T02:51:04.392Z,18.06
2022-08-21T02:53:31.987Z,18.05
2022-08-21T02:56:02.817Z,17.96
2022-08-21T02:58:34.295Z,18.01
2022-08-21T03:01:02.034Z,18.00
2022-08-21T03:03:29.197Z,17.97
2022-08-21T03:05:56.433Z,17.95
2022-08-21T03:08:24.191Z,17.93
2022-08-21T03:10:55.063Z,17.89
2022-08-21T03:13:22.127Z,17.85
2022-08-21T03:15:50.817Z,17.93
2022-08-21T03:18:18.582Z,17.95
2022-08-21T03:20:48.686Z,17.97
2022-08-21T03:23:18.420Z,17.97
2022-08-21T03:25:47.829Z,18.00
2022-08-21T03:28:20.292Z,18.00
2022-08-21T03:30:49.669Z,17.96
2022-08-21T03:33:17.114Z,17.96
2022-08-21T03:35:56.471Z,18.03
2022-08-21T03:38:26.501Z,18.04
2022-08-21T03:40:54.405Z,18.06
2022-08-21T03:43:21.907Z,18.08
2022-08-21T03:45:48.714Z,18.09
2022-08-21T03:48:15.906Z,18.14
2022-08-21T03:50:45.889Z,18.10
2022-08-21T03:53:16.968Z,18.12
2022-08-21T03:55:49.600Z,18.22
2022-08-21T03:58:18.688Z,18.24
2022-08-21T04:00:48.587Z,18.25
2022-08-21T04:03:16.436Z,18.29
2022-08-21T04:05:44.180Z,18.32
2022-08-21T04:08:10.848Z,18.39
2022-08-21T04:10:40.155Z,18.46
2022-08-21T04:13:08.595Z,18.54
2022-08-21T04:15:35.483Z,18.60
2022-08-21T04:18:04.547Z,18.72
2022-08-21T04:20:31.485Z,18.78
2022-08-21T04:22:58.369Z,18.85
2022-08-21T04:25:28.716Z,18.93
2022-08-21T04:27:55.541Z,18.95
2022-08-21T04:30:28.150Z,18.99
2022-08-21T04:32:58.311Z,18.98
2022-08-21T04:35:27.215Z,19.01
2022-08-21T04:37:54.167Z,19.02
2022-08-21T04:40:23.656Z,19.03
2022-08-21T04:42:56.136Z,19.09
2022-08-21T04:45:27.839Z,19.21
2022-08-21T04:47:56.851Z,19.25
2022-08-21T04:50:28.014Z,19.27
2022-08-21T04:53:04.995Z,19.33
2022-08-21T04:55:32.466Z,19.26
2022-08-21T04:58:01.013Z,19.26
2022-08-21T05:00:27.947Z,19.30
2022-08-21T05:03:00.106Z,19.35
2022-08-21T05:05:30.016Z,19.36
2022-08-21T05:08:00.455Z,19.48
2022-08-21T05:10:27.634Z,19.53
2022-08-21T05:12:55.731Z,19.56
2022-08-21T05:15:22.755Z,19.56
2022-08-21T05:17:55.488Z,19.55
2022-08-21T05:20:28.882Z,19.55
2022-08-21T05:22:56.296Z,19.57
2022-08-21T05:25:23.846Z,19.64
2022-08-21T05:27:51.999Z,19.65
2022-08-21T05:30:19.984Z,19.62
2022-08-21T05:32:48.473Z,19.56
2022-08-21T05:35:15.922Z,19.64
2022-08-21T05:37:42.607Z,19.63
2022-08-21T05:40:22.518Z,19.60
2022-08-21T05:42:55.037Z,19.55
2022-08-21T05:45:43.356Z,19.67
2022-08-21T05:48:31.799Z,19.71
2022-08-21T05:50:59.028Z,19.76
2022-08-21T05:53:26.409Z,19.73
2022-08-21T05:55:53.251Z,19.74
2022-08-21T05:58:21.784Z,19.81
2022-08-21T06:00:51.338Z,19.82
2022-08-21T06:03:27.070Z,19.82
2022-08-21T06:05:54.835Z,19.86
2022-08-21T06:08:22.959Z,19.93
2022-08-21T06:10:51.043Z,19.94
2022-08-21T06:13:19.679Z,19.96
2022-08-21T06:15:46.804Z,20.04
2022-08-21T06:18:13.822Z,20.09
2022-08-21T06:20:40.935Z,20.17
2022-08-21T06:23:08.312Z,20.15
2022-08-21T06:25:35.294Z,20.26
2022-08-21T06:28:06.270Z,20.30
2022-08-21T06:30:34.243Z,20.36
2022-08-21T06:33:01.428Z,20.43
2022-08-21T06:35:29.956Z,20.42
2022-08-21T06:37:58.567Z,20.47
2022-08-21T06:40:26.982Z,20.59
2022-08-21T06:42:53.793Z,20.60
2022-08-21T06:45:21.866Z,20.71
2022-08-21T06:47:48.582Z,20.76
2022-08-21T06:50:15.328Z,20.83
2022-08-21T06:52:42.480Z,20.84
2022-08-21T06:55:11.239Z,20.82
2022-08-21T06:57:38.760Z,20.76
2022-08-21T07:00:07.578Z,20.88
2022-08-21T07:02:34.763Z,20.92
2022-08-21T07:05:01.789Z,21.03
2022-08-21T07:07:45.387Z,21.13
2022-08-21T07:10:22.326Z,21.21
2022-08-21T07:13:00.026Z,21.23
2022-08-21T07:15:28.009Z,21.25
2022-08-21T07:17:55.135Z,21.31
2022-08-21T07:20:21.902Z,21.34
2022-08-21T07:22:48.579Z,21.35
2022-08-21T07:25:15.641Z,21.36
2022-08-21T07:27:42.319Z,21.39
2022-08-21T07:30:09.447Z,21.39
2022-08-21T07:32:36.382Z,21.48
2022-08-21T07:35:04.023Z,21.53
2022-08-21T07:37:30.706Z,21.53
2022-08-21T07:39:57.829Z,21.56
2022-08-21T07:42:24.607Z,21.61
2022-08-21T07:44:53.108Z,21.70
2022-08-21T07:47:29.323Z,21.73
2022-08-21T07:50:09.339Z,21.69
2022-08-21T07:52:36.310Z,21.71
2022-08-21T07:55:06.275Z,21.84
2022-08-21T07:57:34.099Z,21.82
2022-08-21T08:00:01.026Z,21.95
2022-08-21T08:02:30.158Z,22.00
2022-08-21T08:05:06.732Z,22.12
2022-08-21T08:07:33.597Z,22.18
2022-08-21T08:10:01.003Z,22.28
2022-08-21T08:12:30.371Z,22.27
2022-08-21T08:15:01.434Z,22.25
2022-08-21T08:17:28.525Z,22.31
2022-08-21T08:19:55.533Z,22.32
2022-08-21T08:22:24.960Z,22.29
2022-08-21T08:24:53.433Z,22.34
2022-08-21T08:27:21.457Z,22.32
2022-08-21T08:29:48.954Z,22.39
2022-08-21T08:32:16.083Z,22.38
2022-08-21T08:34:42.811Z,22.50
2022-08-21T08:37:11.001Z,22.56
2022-08-21T08:39:39.093Z,22.64
2022-08-21T08:42:33.476Z,22.74
2022-08-21T08:45:14.656Z,22.82
2022-08-21T08:47:45.645Z,22.91
2022-08-21T08:50:24.604Z,23.00
2022-08-21T08:53:12.758Z,23.11
2022-08-21T08:55:42.973Z,23.12
2022-08-21T08:58:32.052Z,23.15
2022-08-21T09:01:00.347Z,23.21
2022-08-21T09:03:28.768Z,23.20
2022-08-21T09:06:12.899Z,23.20
2022-08-21T09:09:01.369Z,23.29
2022-08-21T09:11:37.703Z,23.34
2022-08-21T09:14:10.850Z,23.36
2022-08-21T09:16:43.532Z,23.46
2022-08-21T09:19:18.240Z,23.45
2022-08-21T09:22:10.240Z,23.50
2022-08-21T09:25:12.440Z,23.56
2022-08-21T09:27:39.161Z,23.59
2022-08-21T09:30:08.294Z,23.61
2022-08-21T09:32:37.823Z,23.60
2022-08-21T09:35:13.304Z,23.67
2022-08-21T09:37:59.262Z,23.65
2022-08-21T09:40:31.709Z,23.69
2022-08-21T09:43:04.290Z,23.75
2022-08-21T09:45:33.866Z,23.85
2022-08-21T09:48:14.408Z,23.91
2022-08-21T09:50:42.566Z,23.95
2022-08-21T09:53:17.379Z,23.94
2022-08-21T09:56:17.139Z,23.94
2022-08-21T09:58:47.754Z,24.03
2022-08-21T10:01:18.560Z,24.07
2022-08-21T10:03:47.289Z,24.11
2022-08-21T10:06:28.829Z,24.11
2022-08-21T10:09:19.911Z,24.20
2022-08-21T10:12:14.956Z,24.22
2022-08-21T10:15:12.020Z,24.23
2022-08-21T10:17:47.536Z,24.27
2022-08-21T10:20:20.881Z,24.31
2022-08-21T10:22:56.880Z,24.31
2022-08-21T10:25:30.115Z,24.40
2022-08-21T10:28:21.411Z,24.40
2022-08-21T10:30:51.305Z,24.40
2022-08-21T10:33:44.432Z,24.51
2022-08-21T10:36:36.631Z,24.49
2022-08-21T10:39:35.190Z,24.58
2022-08-21T10:42:28.274Z,24.63
2022-08-21T10:45:09.622Z,24.69
2022-08-21T10:47:57.331Z,24.76
2022-08-21T10:50:45.663Z,24.75
2022-08-21T10:53:49.644Z,24.70
2022-08-21T10:56:23.967Z,24.77
2022-08-21T10:59:23.925Z,24.71
2022-08-21T11:02:03.031Z,24.84
2022-08-21T11:04:49.114Z,24.87
2022-08-21T11:07:40.467Z,24.85
2022-08-21T11:10:22.240Z,24.93
2022-08-21T11:12:57.700Z,24.97
2022-08-21T11:15:29.580Z,24.99
2022-08-21T11:18:23.913Z,25.00
2022-08-21T11:21:36.644Z,25.00
2022-08-21T11:24:31.374Z,25.03
2022-08-21T11:27:01.866Z,25.06
2022-08-21T11:29:38.632Z,25.09
2022-08-21T11:32:08.696Z,25.10
2022-08-21T11:34:52.584Z,25.12
2022-08-21T11:37:57.124Z,25.09
2022-08-21T11:40:56.321Z,25.16
2022-08-21T11:43:43.769Z,25.16
2022-08-21T11:46:31.633Z,25.20
2022-08-21T11:49:29.487Z,25.18
2022-08-21T11:52:17.660Z,25.25
2022-08-21T11:54:55.155Z,25.20
2022-08-21T11:57:30.527Z,25.25
2022-08-21T12:00:00.762Z,25.25
2022-08-21T12:02:51.836Z,25.30
2022-08-21T12:05:40.734Z,25.33
2022-08-21T12:08:10.886Z,25.27
2022-08-21T12:10:42.128Z,25.38
2022-08-21T12:13:36.650Z,25.34
2022-08-21T12:16:14.443Z,25.40
2022-08-21T12:18:42.529Z,25.51
2022-08-21T12:21:23.750Z,25.48
2022-08-21T12:24:03.308Z,25.53
2022-08-21T12:26:50.682Z,25.52
2022-08-21T12:29:24.166Z,25.59
2022-08-21T12:32:00.880Z,25.62
2022-08-21T12:34:35.840Z,25.62
2022-08-21T12:37:17.943Z,25.61
2022-08-21T12:39:47.829Z,25.61
2022-08-21T12:42:23.378Z,25.57
2022-08-21T12:45:06.115Z,25.56
2022-08-21T12:47:48.364Z,25.55
2022-08-21T12:50:24.117Z,25.55
2022-08-21T12:53:29.262Z,25.53
2022-08-21T12:56:02.172Z,25.65
2022-08-21T12:58:29.863Z,25.69
2022-08-21T13:01:31.980Z,25.72
2022-08-21T13:04:05.309Z,25.82
2022-08-21T13:06:39.088Z,25.81
2022-08-21T13:09:11.128Z,25.81
2022-08-21T13:11:40.856Z,25.83
2022-08-21T13:14:26.862Z,25.86
2022-08-21T13:16:55.986Z,25.87
2022-08-21T13:19:24.448Z,25.92
2022-08-21T13:21:53.346Z,25.94
2022-08-21T13:27:27.870Z,25.90
2022-08-21T13:30:13.791Z,25.88
2022-08-21T13:32:49.626Z,25.85
2022-08-21T13:35:27.856Z,25.83
2022-08-21T13:37:56.747Z,25.85
2022-08-21T13:40:28.920Z,25.85
2022-08-21T13:42:57.113Z,25.87
2022-08-21T13:45:31.972Z,25.80
2022-08-21T13:48:06.175Z,25.87
2022-08-21T13:50:36.277Z,25.82
2022-08-21T13:53:07.382Z,25.87
2022-08-21T13:55:41.343Z,25.86
2022-08-21T13:58:09.644Z,25.86
2022-08-21T14:00:46.599Z,25.86
2022-08-21T14:03:35.660Z,25.85
2022-08-21T14:06:03.951Z,25.91
2022-08-21T14:08:37.979Z,25.92
2022-08-21T14:11:07.250Z,25.90
2022-08-21T14:13:47.738Z,25.85
2022-08-21T14:16:19.701Z,25.81
2022-08-21T14:18:50.130Z,25.79
2022-08-21T14:21:29.013Z,25.79
2022-08-21T14:24:15.327Z,25.82
2022-08-21T14:27:02.240Z,25.84
2022-08-21T14:29:35.422Z,25.84
2022-08-21T14:32:21.654Z,25.85
2022-08-21T14:34:54.749Z,25.84
2022-08-21T14:37:22.195Z,25.81
2022-08-21T14:39:48.963Z,25.81
2022-08-21T14:42:16.106Z,25.80
2022-08-21T14:44:43.217Z,25.81
2022-08-21T14:47:10.485Z,25.81
2022-08-21T14:49:37.649Z,25.79
2022-08-21T14:52:04.734Z,25.73
2022-08-21T14:54:32.893Z,25.76
2022-08-21T14:57:04.504Z,25.72
2022-08-21T14:59:33.979Z,25.72
2022-08-21T15:02:01.942Z,25.71
2022-08-21T15:04:28.759Z,25.70
2022-08-21T15:06:55.495Z,25.68
2022-08-21T15:09:22.773Z,25.62
2022-08-21T15:11:49.618Z,25.63
2022-08-21T15:14:21.738Z,25.59
2022-08-21T15:16:49.813Z,25.56
2022-08-21T15:19:16.737Z,25.53
2022-08-21T15:21:43.706Z,25.44
2022-08-21T15:24:10.800Z,25.48
2022-08-21T15:26:37.488Z,25.41
2022-08-21T15:29:06.978Z,25.45
2022-08-21T15:31:34.761Z,25.41
2022-08-21T15:34:02.246Z,25.39
2022-08-21T15:36:28.980Z,25.39
2022-08-21T15:38:56.023Z,25.34
2022-08-21T15:41:22.931Z,25.37
2022-08-21T15:43:52.681Z,25.36
2022-08-21T15:46:20.895Z,25.34
2022-08-21T15:48:47.802Z,25.32
2022-08-21T15:51:17.060Z,25.29
2022-08-21T15:53:44.925Z,25.27
2022-08-21T15:56:37.545Z,25.24
2022-08-21T15:59:13.520Z,25.21
2022-08-21T16:01:44.822Z,25.11
2022-08-21T16:04:19.780Z,25.10
2022-08-21T16:06:54.288Z,25.06
2022-08-21T16:09:24.426Z,24.95
2022-08-21T16:11:52.094Z,24.99
2022-08-21T16:14:19.009Z,24.96
2022-08-21T16:16:46.306Z,24.94
2022-08-21T16:19:14.579Z,24.91
2022-08-21T16:21:41.558Z,24.81
2022-08-21T16:24:08.486Z,24.83
2022-08-21T16:26:35.274Z,24.80
2022-08-21T16:29:03.234Z,24.70
2022-08-21T16:31:31.999Z,24.72
2022-08-21T16:33:59.697Z,24.65
2022-08-21T16:36:27.571Z,24.64
2022-08-21T16:38:56.577Z,24.62
2022-08-21T16:41:27.190Z,24.57
2022-08-21T16:43:54.409Z,24.54
2022-08-21T16:46:22.928Z,24.51
2022-08-21T16:48:50.232Z,24.48
2022-08-21T16:51:17.604Z,24.45
2022-08-21T16:53:44.654Z,24.40
2022-08-21T16:56:13.567Z,24.38
2022-08-21T16:58:44.245Z,24.34
2022-08-21T17:01:15.159Z,24.25
2022-08-21T17:03:45.808Z,24.21
2022-08-21T17:06:13.508Z,24.22
2022-08-21T17:08:42.270Z,24.14
2022-08-21T17:11:32.497Z,24.14
2022-08-21T17:14:07.650Z,24.03
2022-08-21T17:16:35.602Z,24.00
2022-08-21T17:19:02.436Z,23.99
2022-08-21T17:21:29.207Z,23.99
2022-08-21T17:23:56.409Z,23.93
2022-08-21T17:26:23.846Z,23.89
2022-08-21T17:28:54.604Z,23.88
2022-08-21T17:31:22.167Z,23.84
2022-08-21T17:33:53.045Z,23.85
2022-08-21T17:36:22.357Z,23.77
2022-08-21T17:38:49.407Z,23.69
2022-08-21T17:41:16.984Z,23.69
2022-08-21T17:43:44.379Z,23.65
2022-08-21T17:46:17.183Z,23.64
2022-08-21T17:48:47.457Z,23.60
2022-08-21T17:51:15.421Z,23.54
2022-08-21T17:53:42.647Z,23.53
2022-08-21T17:56:09.514Z,23.47
2022-08-21T17:58:37.290Z,23.43
2022-08-21T18:01:05.835Z,23.37
2022-08-21T18:03:38.361Z,23.30
2022-08-21T18:06:06.171Z,23.25
2022-08-21T18:08:34.358Z,23.18
2022-08-21T18:11:01.473Z,23.13
2022-08-21T18:13:31.544Z,23.06
2022-08-21T18:16:00.305Z,23.00
2022-08-21T18:18:32.874Z,22.90
2022-08-21T18:20:59.898Z,22.88
2022-08-21T18:23:43.469Z,22.78
2022-08-21T18:26:15.200Z,22.79
2022-08-21T18:28:44.123Z,22.75
2022-08-21T18:31:12.208Z,22.70
2022-08-21T18:33:43.680Z,22.59
2022-08-21T18:36:27.833Z,22.53
2022-08-21T18:39:08.682Z,22.47
2022-08-21T18:41:41.420Z,22.42
2022-08-21T18:44:08.498Z,22.40
2022-08-21T18:46:35.235Z,22.38
2022-08-21T18:49:02.386Z,22.29
2022-08-21T18:51:29.081Z,22.32
2022-08-21T18:53:56.174Z,22.30
2022-08-21T18:56:23.185Z,22.26
2022-08-21T18:58:51.010Z,22.23
2022-08-21T19:01:17.797Z,22.20
2022-08-21T19:03:44.868Z,22.19
2022-08-21T19:06:11.941Z,22.10
2022-08-21T19:08:38.814Z,22.09
2022-08-21T19:11:06.602Z,22.12
2022-08-21T19:13:34.505Z,22.10
2022-08-21T19:16:05.184Z,22.07
2022-08-21T19:18:37.289Z,22.07
2022-08-21T19:21:04.377Z,22.04
2022-08-21T19:23:31.322Z,22.00
2022-08-21T19:26:07.340Z,21.93
2022-08-21T19:28:48.071Z,21.94
2022-08-21T19:31:19.752Z,21.92
2022-08-21T19:34:01.569Z,21.88
2022-08-21T19:36:30.044Z,21.78
2022-08-21T19:38:56.975Z,21.78
2022-08-21T19:41:28.172Z,21.74
2022-08-21T19:43:58.282Z,21.73
2022-08-21T19:46:35.046Z,21.71
2022-08-21T19:49:04.801Z,21.68
2022-08-21T19:51:35.547Z,21.64
2022-08-21T19:54:03.517Z,21.58
2022-08-21T19:56:32.515Z,21.62
2022-08-21T19:59:03.031Z,21.59
2022-08-21T20:01:33.188Z,21.57
2022-08-21T20:04:00.457Z,21.53
2022-08-21T20:06:27.265Z,21.51
2022-08-21T20:08:55.240Z,21.41
2022-08-21T20:11:28.775Z,21.46
2022-08-21T20:13:59.491Z,21.45
2022-08-21T20:16:28.991Z,21.36
2022-08-21T20:18:56.074Z,21.35
2022-08-21T20:21:22.949Z,21.36
2022-08-21T20:23:50.239Z,21.33
2022-08-21T20:26:19.001Z,21.24
2022-08-21T20:28:46.228Z,21.27
2022-08-21T20:31:17.729Z,21.25
2022-08-21T20:33:46.963Z,21.28
2022-08-21T20:36:16.904Z,21.20
2022-08-21T20:38:44.892Z,21.16
2022-08-21T20:41:21.255Z,21.09
2022-08-21T20:43:58.724Z,21.11
2022-08-21T20:46:27.163Z,21.04
2022-08-21T20:48:54.432Z,21.09
2022-08-21T20:51:39.417Z,21.06
2022-08-21T20:54:35.606Z,21.01
2022-08-21T20:57:03.655Z,21.04
2022-08-21T20:59:30.287Z,20.99
2022-08-21T21:02:02.442Z,20.98
2022-08-21T21:04:40.860Z,20.97
2022-08-21T21:07:15.857Z,20.95
2022-08-21T21:09:49.654Z,20.92
2022-08-21T21:12:27.911Z,20.83
2022-08-21T21:15:00.575Z,20.87
2022-08-21T21:17:36.369Z,20.86
2022-08-21T21:20:17.306Z,20.83
2022-08-21T21:22:57.863Z,20.80
2022-08-21T21:25:40.660Z,20.74
2022-08-21T21:28:13.199Z,20.67
2022-08-21T21:33:31.088Z,20.69
2022-08-21T21:36:07.701Z,20.64
2022-08-21T21:38:51.637Z,20.60
2022-08-21T21:41:54.320Z,20.58
2022-08-21T21:44:33.031Z,20.56
2022-08-21T21:47:06.082Z,20.49
2022-08-21T21:52:34.566Z,20.41
2022-08-21T21:55:13.576Z,20.30
2022-08-21T21:57:58.393Z,20.33
2022-08-21T22:00:30.772Z,20.23
2022-08-21T22:03:22.416Z,20.26
2022-08-21T22:06:06.816Z,20.23
2022-08-21T22:08:50.981Z,20.16
2022-08-21T22:11:31.824Z,20.15
2022-08-21T22:14:16.104Z,20.10
2022-08-21T22:16:48.755Z,20.11
2022-08-21T22:19:26.502Z,20.05
2022-08-21T22:22:12.660Z,19.98
2022-08-21T22:24:43.948Z,20.00
2022-08-21T22:27:17.078Z,19.98
2022-08-21T22:29:56.144Z,19.94
2022-08-21T22:32:38.051Z,19.94
2022-08-21T22:35:17.072Z,19.92
2022-08-21T22:37:55.114Z,19.89
2022-08-21T22:40:27.587Z,19.79
2022-08-21T22:43:26.374Z,19.81
2022-08-21T22:46:04.276Z,19.77
2022-08-21T22:48:51.051Z,19.72
2022-08-21T22:51:32.455Z,19.73
2022-08-21T22:54:00.223Z,19.69
2022-08-21T22:56:43.360Z,19.62
2022-08-21T22:59:25.801Z,19.69
2022-08-21T23:01:59.510Z,19.65
2022-08-21T23:04:27.430Z,19.61
2022-08-21T23:06:58.277Z,19.57
2022-08-21T23:09:37.408Z,19.56
2022-08-21T23:12:23.836Z,19.52
2022-08-21T23:15:05.339Z,19.53
2022-08-21T23:17:49.662Z,19.41
2022-08-21T23:20:24.975Z,19.35
2022-08-21T23:23:03.664Z,19.35
2022-08-21T23:25:36.453Z,19.26
2022-08-21T23:28:57.415Z,19.31
2022-08-21T23:31:44.293Z,19.28
2022-08-21T23:34:29.782Z,19.18
2022-08-21T23:37:48.767Z,19.22
2022-08-21T23:40:38.816Z,19.19
2022-08-21T23:47:10.517Z,19.13
2022-08-21T23:49:54.058Z,19.13
2022-08-21T23:52:21.194Z,19.03
2022-08-21T23:55:12.091Z,19.00
2022-08-21T23:58:02.010Z,19.04
